Flight Track Log - Related Links

Times and Time Zones

All times are in EDT time to prevent confusion due to time zone crossing. See the UAL165 flight status page for this flight to view local times or setup timezone preferences in your user account.

Time Position Orientation Groundspeed Altitude Reporting Facility
EDT Latitude Longitude Course Direction KTS MPH feet Rate Location/Type
Mon 05:39:37 PM 13.4833 144.8000 283° West 150 173 1,400  Level Guam Center
Mon 05:40:37 PM 13.5333 144.7833 342° North 210 242 3,600 2,300 Climbing Guam Center
Mon 05:41:37 PM 13.5833 144.7333 316° Northwest 260 299 6,000 2,650 Climbing Guam Center
Mon 05:42:00 PM 13.7679 144.6246 320° Northwest  Level Estimated
Mon 05:42:37 PM 13.6500 144.6833 324° Northwest 290 334 8,900  Level Guam Center
Mon 05:43:00 PM 13.8625 144.5670 316° Northwest  Level Estimated
Mon 05:43:37 PM 13.7167 144.6167 316° Northwest 360 414 10,700  Level Guam Center
Mon 05:44:00 PM 13.8873 144.4566 283° West  Level FlightAware Approximate
Mon 05:44:37 PM 13.8000 144.5333 316° Northwest 390 449 13,400  Level Guam Center
Mon 05:45:38 PM 13.8667 144.4667 316° Northwest 400 460 16,000 2,600 Climbing Guam Center
Mon 05:46:37 PM 13.9500 144.3833 316° Northwest 410 472 18,600 2,471 Climbing Guam Center
Mon 05:47:37 PM 14.0500 144.3000 321° Northwest 420 483 20,900 2,479 Climbing Guam Center
Mon 05:48:38 PM 14.1333 144.2333 322° Northwest 430 495 23,600 2,430 Climbing Guam Center
Mon 05:49:38 PM 14.2167 144.1500 316° Northwest 440 506 25,800 1,600 Climbing Guam Center
Mon 05:50:38 PM 14.3167 144.0500 316° Northwest 460 529 26,800 1,600 Climbing Guam Center
Mon 05:51:38 PM 14.4000 143.9667 316° Northwest 470 541 29,000 2,150 Climbing Guam Center
Mon 05:52:38 PM 14.5000 143.8833 321° Northwest 470 541 31,100 1,800 Climbing Guam Center
Mon 05:53:38 PM 14.6000 143.7833 316° Northwest 450 518 32,600 1,537 Climbing Guam Center
Mon 05:54:39 PM 14.7000 143.7000 321° Northwest 460 529 34,200 1,488 Climbing Guam Center
Mon 05:55:39 PM 14.7833 143.6167 316° Northwest 460 529 35,600 1,750 Climbing Guam Center
Mon 05:56:39 PM 14.8833 143.5333 321° Northwest 450 518 37,700 1,800 Climbing Guam Center
Mon 05:57:39 PM 14.9667 143.4333 311° West 440 506 39,200 1,150 Climbing Guam Center
Mon 05:58:39 PM 15.0667 143.3500 321° Northwest 440 506 40,000 400 Climbing Guam Center
Mon 05:59:39 PM 15.1500 143.2667 316° Northwest 440 506 40,000  Level Guam Center
Mon 06:00:40 PM 15.2333 143.1833 316° Northwest 440 506 40,000  Level Guam Center
Mon 06:01:40 PM 15.3333 143.1000 321° Northwest 440 506 40,000  Level Guam Center
Mon 06:02:40 PM 15.4167 143.0167 316° Northwest 440 506 40,000  Level Guam Center
Mon 06:03:40 PM 15.5167 142.9333 321° Northwest 430 495 40,000  Level Guam Center
Mon 06:04:40 PM 15.6000 142.8500 316° Northwest 440 506 40,000  Level Guam Center
Mon 06:05:40 PM 15.6833 142.7667 316° Northwest 440 506 40,000  Level Guam Center
Mon 06:08:00 PM 15.7938 142.6654 319° Northwest  Level FlightAware Approximate
Mon 06:15:00 PM 16.3802 142.1251 319° Northwest  Level FlightAware Approximate
Mon 06:16:00 PM 16.4639 142.0477 318° Northwest  Level FlightAware Approximate
Mon 06:17:00 PM 16.5471 141.9696 316° Northwest  Level FlightAware Approximate
Mon 06:18:00 PM 16.6279 141.8888 316° Northwest  Level FlightAware Approximate
Mon 06:18:28 PM 16.5833 141.9500 319° Northwest 415 478 40,000  Level Oakland Oceanic (ODAPS)
Mon 06:19:00 PM 16.7123 141.8122 319° Northwest  Level FlightAware Approximate
Mon 06:20:00 PM 16.7971 141.7359 319° Northwest  Level FlightAware Approximate
Mon 06:21:00 PM 16.8817 141.6595 319° Northwest  Level FlightAware Approximate
Mon 06:22:00 PM 16.9664 141.5830 319° Northwest  Level FlightAware Approximate
Mon 06:23:00 PM 17.0510 141.5065 319° Northwest  Level FlightAware Approximate
Mon 06:24:00 PM 17.3691 141.2359 319° Northwest 415 478 40,000  Level FlightAware Transoceanic
Mon 06:25:00 PM 17.4563 141.1562 319° Northwest 415 478 40,000  Level FlightAware Transoceanic
Mon 06:26:00 PM 17.5434 141.0764 319° Northwest 415 478 40,000  Level FlightAware Transoceanic
Mon 06:27:00 PM 17.6305 140.9965 319° Northwest 415 478 40,000  Level FlightAware Transoceanic
Mon 06:28:00 PM 17.7176 140.9165 319° Northwest 415 478 40,000  Level FlightAware Transoceanic
Mon 06:29:00 PM 17.8046 140.8365 319° Northwest 415 478 40,000  Level FlightAware Transoceanic
Mon 06:30:00 PM 17.8916 140.7564 319° Northwest 415 478 40,000  Level FlightAware Transoceanic
Mon 06:31:00 PM 17.9786 140.6762 319° Northwest 415 478 40,000  Level FlightAware Transoceanic
Mon 06:32:00 PM 18.0655 140.5960 319° Northwest 415 478 40,000  Level FlightAware Transoceanic
Mon 06:33:00 PM 18.1524 140.5156 319° Northwest 415 478 40,000  Level FlightAware Transoceanic
Mon 06:34:00 PM 18.2393 140.4352 319° Northwest 415 478 40,000  Level FlightAware Transoceanic
Mon 06:35:00 PM 18.3261 140.3547 319° Northwest 415 478 40,000  Level FlightAware Transoceanic
Mon 06:36:00 PM 18.4129 140.2741 319° Northwest 415 478 40,000  Level FlightAware Transoceanic
Mon 06:37:00 PM 18.4996 140.1934 319° Northwest 415 478 40,000  Level FlightAware Transoceanic
Mon 06:38:00 PM 18.5864 140.1127 319° Northwest 415 478 40,000  Level FlightAware Transoceanic
Mon 06:39:00 PM 18.6731 140.0319 319° Northwest 415 478 40,000  Level FlightAware Transoceanic
Mon 06:40:00 PM 18.7597 139.9509 319° Northwest 415 478 40,000  Level FlightAware Transoceanic
Mon 06:41:00 PM 18.8463 139.8699 318° Northwest 415 478 40,000  Level FlightAware Transoceanic
Mon 06:42:00 PM 18.9329 139.7889 318° Northwest 415 478 40,000  Level FlightAware Transoceanic
Mon 06:43:00 PM 19.0195 139.7077 318° Northwest 415 478 40,000  Level FlightAware Transoceanic
Mon 06:44:00 PM 19.1060 139.6265 318° Northwest 415 478 40,000  Level FlightAware Transoceanic
Mon 06:45:00 PM 19.1925 139.5451 318° Northwest 415 478 40,000  Level FlightAware Transoceanic
Mon 06:46:00 PM 19.2789 139.4637 318° Northwest 415 478 40,000  Level FlightAware Transoceanic
Mon 06:47:00 PM 19.3653 139.3822 318° Northwest 415 478 40,000  Level FlightAware Transoceanic
Mon 06:48:00 PM 19.4517 139.3006 318° Northwest 415 478 40,000  Level FlightAware Transoceanic
Mon 06:49:00 PM 19.5381 139.2189 318° Northwest 415 478 40,000  Level FlightAware Transoceanic
Mon 06:50:00 PM 19.6244 139.1372 318° Northwest 415 478 40,000  Level FlightAware Transoceanic
Mon 06:51:00 PM 19.7106 139.0553 318° Northwest 415 478 40,000  Level FlightAware Transoceanic
Mon 06:52:00 PM 19.7969 138.9734 318° Northwest 415 478 40,000  Level FlightAware Transoceanic
Mon 06:53:00 PM 19.8830 138.8914 318° Northwest 415 478 40,000  Level FlightAware Transoceanic
Mon 06:54:00 PM 19.9692 138.8092 318° Northwest 415 478 40,000  Level FlightAware Transoceanic
Mon 06:55:00 PM 20.0553 138.7270 318° Northwest 415 478 40,000  Level FlightAware Transoceanic
Mon 06:56:00 PM 20.1414 138.6447 318° Northwest 415 478 40,000  Level FlightAware Transoceanic
Mon 06:57:00 PM 20.2274 138.5623 318° Northwest 415 478 40,000  Level FlightAware Transoceanic
Mon 06:58:00 PM 20.3134 138.4799 318° Northwest 415 478 40,000  Level FlightAware Transoceanic
Mon 06:59:00 PM 20.3994 138.3973 318° Northwest 415 478 40,000  Level FlightAware Transoceanic
Mon 07:00:00 PM 20.4853 138.3146 318° Northwest 415 478 40,000  Level FlightAware Transoceanic
Mon 07:01:00 PM 20.5712 138.2319 318° Northwest 415 478 40,000  Level FlightAware Transoceanic
Mon 07:02:00 PM 20.6570 138.1490 318° Northwest 415 478 40,000  Level FlightAware Transoceanic
Mon 07:03:00 PM 20.7428 138.0661 318° Northwest 415 478 40,000  Level FlightAware Transoceanic
Mon 07:04:00 PM 20.8286 137.9830 318° Northwest 415 478 40,000  Level FlightAware Transoceanic
Mon 07:05:00 PM 20.9143 137.8999 318° Northwest 415 478 40,000  Level FlightAware Transoceanic
Mon 07:06:00 PM 21.0000 137.8167 330° Northwest 415 478 40,000  Level FlightAware Transoceanic
Mon 07:07:00 PM 21.0963 137.7583 330° Northwest 415 478 40,000  Level FlightAware Transoceanic
Mon 07:08:00 PM 21.1925 137.6998 330° Northwest 415 478 40,000  Level FlightAware Transoceanic
Mon 07:09:00 PM 21.2887 137.6413 330° Northwest 415 478 40,000  Level FlightAware Transoceanic
Mon 07:10:00 PM 21.3849 137.5827 330° Northwest 415 478 40,000  Level FlightAware Transoceanic
Mon 07:11:00 PM 21.4811 137.5240 330° Northwest 415 478 40,000  Level FlightAware Transoceanic
Mon 07:12:00 PM 21.5772 137.4653 330° Northwest 415 478 40,000  Level FlightAware Transoceanic
Mon 07:13:00 PM 21.6733 137.4064 330° Northwest 415 478 40,000  Level FlightAware Transoceanic
Mon 07:14:00 PM 21.7694 137.3475 330° Northwest 415 478 40,000  Level FlightAware Transoceanic
Mon 07:15:00 PM 21.8655 137.2885 330° Northwest 415 478 40,000  Level FlightAware Transoceanic
Mon 07:16:00 PM 21.9616 137.2294 330° Northwest 415 478 40,000  Level FlightAware Transoceanic
Mon 07:17:00 PM 22.0576 137.1703 330° Northwest 415 478 40,000  Level FlightAware Transoceanic
Mon 07:18:00 PM 22.1537 137.1111 330° Northwest 415 478 40,000  Level FlightAware Transoceanic
Mon 07:19:00 PM 22.2497 137.0517 330° Northwest 415 478 40,000  Level FlightAware Transoceanic
Mon 07:20:00 PM 22.3456 136.9923 330° Northwest 415 478 40,000  Level FlightAware Transoceanic
Mon 07:21:00 PM 22.4416 136.9329 330° Northwest 415 478 40,000  Level FlightAware Transoceanic
Mon 07:22:00 PM 22.5375 136.8733 330° Northwest 415 478 40,000  Level FlightAware Transoceanic
Mon 07:23:00 PM 22.6334 136.8137 330° Northwest 415 478 40,000  Level FlightAware Transoceanic
Mon 07:24:00 PM 22.7293 136.7539 330° Northwest 415 478 40,000  Level FlightAware Transoceanic
Mon 07:25:00 PM 22.8252 136.6941 330° Northwest 415 478 40,000  Level FlightAware Transoceanic
Mon 07:26:00 PM 22.9211 136.6342 330° Northwest 415 478 40,000  Level FlightAware Transoceanic
Mon 07:27:00 PM 23.0169 136.5742 330° Northwest 415 478 40,000  Level FlightAware Transoceanic
Mon 07:28:00 PM 23.1127 136.5142 330° Northwest 415 478 40,000  Level FlightAware Transoceanic
Mon 07:29:00 PM 23.2085 136.4540 330° Northwest 415 478 40,000  Level FlightAware Transoceanic
Mon 07:30:00 PM 23.3042 136.3938 330° Northwest 415 478 40,000  Level FlightAware Transoceanic
Mon 07:31:00 PM 23.4000 136.3335 330° Northwest 415 478 40,000  Level FlightAware Transoceanic
Mon 07:32:00 PM 23.4957 136.2731 330° Northwest 415 478 40,000  Level FlightAware Transoceanic
Mon 07:33:00 PM 23.5914 136.2126 330° Northwest 415 478 40,000  Level FlightAware Transoceanic
Mon 07:34:00 PM 23.6870 136.1520 330° Northwest 415 478 40,000  Level FlightAware Transoceanic
Mon 07:35:00 PM 23.7827 136.0913 330° Northwest 415 478 40,000  Level FlightAware Transoceanic
Mon 07:36:00 PM 23.8783 136.0305 330° Northwest 415 478 40,000  Level FlightAware Transoceanic
Mon 07:37:00 PM 23.9739 135.9697 330° Northwest 415 478 40,000  Level FlightAware Transoceanic
Mon 07:38:00 PM 24.0695 135.9087 330° Northwest 415 478 40,000  Level FlightAware Transoceanic
Mon 07:39:00 PM 24.1650 135.8477 330° Northwest 415 478 40,000  Level FlightAware Transoceanic
Mon 07:40:00 PM 24.2605 135.7866 330° Northwest 415 478 40,000  Level FlightAware Transoceanic
Mon 07:41:00 PM 24.3560 135.7253 330° Northwest 415 478 40,000  Level FlightAware Transoceanic
Mon 07:42:00 PM 24.4515 135.6640 330° Northwest 415 478 40,000  Level FlightAware Transoceanic
Mon 07:43:00 PM 24.5469 135.6026 330° Northwest 415 478 40,000  Level FlightAware Transoceanic
Mon 07:44:00 PM 24.6423 135.5411 330° Northwest 415 478 40,000  Level FlightAware Transoceanic
Mon 07:45:00 PM 24.7377 135.4795 330° Northwest 415 478 40,000  Level FlightAware Transoceanic
Mon 07:46:00 PM 24.8331 135.4178 330° Northwest 415 478 40,000  Level FlightAware Transoceanic
Mon 07:47:00 PM 24.9285 135.3561 330° Northwest 415 478 40,000  Level FlightAware Transoceanic
Mon 07:48:00 PM 25.0238 135.2942 330° Northwest 415 478 40,000  Level FlightAware Transoceanic
Mon 07:49:00 PM 25.1191 135.2322 329° Northwest 415 478 40,000  Level FlightAware Transoceanic
Mon 07:50:00 PM 25.2143 135.1701 329° Northwest 415 478 40,000  Level FlightAware Transoceanic
Mon 07:51:00 PM 25.3096 135.1080 329° Northwest 415 478 40,000  Level FlightAware Transoceanic
Mon 07:52:00 PM 25.4048 135.0457 329° Northwest 415 478 40,000 -30 Level FlightAware Transoceanic
Mon 07:53:00 PM 25.4945 134.9744 324° Northwest  Level FlightAware Approximate
Mon 07:54:00 PM 25.4954 134.9755 329° Northwest  Level FlightAware Approximate
Mon 07:55:00 PM 25.5904 134.9132 329° Northwest  Level FlightAware Approximate
Mon 07:56:00 PM 25.6855 134.8508 329° Northwest  Level FlightAware Approximate
Mon 07:57:00 PM 25.7805 134.7883 329° Northwest  Level FlightAware Approximate
Mon 07:58:00 PM 25.8754 134.7258 329° Northwest  Level FlightAware Approximate
Mon 07:59:00 PM 25.9704 134.6631 329° Northwest  Level FlightAware Approximate
Mon 08:00:00 PM 26.0653 134.6003 329° Northwest  Level FlightAware Approximate
Mon 08:01:00 PM 26.1602 134.5375 329° Northwest  Level FlightAware Approximate
Mon 08:02:00 PM 26.2549 134.4741 329° Northwest  Level FlightAware Approximate
Mon 08:03:00 PM 26.3493 134.4102 329° Northwest  Level FlightAware Approximate
Mon 08:04:00 PM 26.4436 134.3461 329° Northwest  Level FlightAware Approximate
Mon 08:05:00 PM 26.5379 134.2819 329° Northwest  Level FlightAware Approximate
Mon 08:06:00 PM 26.6322 134.2176 329° Northwest  Level FlightAware Approximate
Mon 08:07:00 PM 26.7264 134.1533 329° Northwest  Level FlightAware Approximate
Mon 08:08:00 PM 26.8207 134.0888 329° Northwest  Level FlightAware Approximate
Mon 08:09:00 PM 26.9149 134.0242 329° Northwest  Level FlightAware Approximate
Mon 08:10:00 PM 27.0090 133.9595 329° Northwest  Level FlightAware Approximate
Mon 08:11:00 PM 27.1031 133.8947 328° Northwest  Level FlightAware Approximate
Mon 08:12:00 PM 27.1972 133.8297 328° Northwest  Level FlightAware Approximate
Mon 08:13:00 PM 27.2913 133.7647 328° Northwest  Level FlightAware Approximate
Mon 08:14:00 PM 27.3853 133.6996 328° Northwest  Level FlightAware Approximate
Mon 08:15:00 PM 27.4794 133.6343 328° Northwest  Level FlightAware Approximate
Mon 08:16:00 PM 27.5733 133.5690 328° Northwest  Level FlightAware Approximate
Mon 08:17:00 PM 27.6673 133.5035 328° Northwest  Level FlightAware Approximate
Mon 08:18:00 PM 27.7612 133.4379 328° Northwest  Level FlightAware Approximate
Mon 08:19:00 PM 27.8551 133.3722 328° Northwest  Level FlightAware Approximate
Mon 08:20:00 PM 27.9490 133.3064 328° Northwest  Level FlightAware Approximate
Mon 08:21:00 PM 28.0428 133.2404 328° Northwest  Level FlightAware Approximate
Mon 08:22:00 PM 28.1366 133.1744 328° Northwest  Level FlightAware Approximate
Mon 08:23:00 PM 28.2304 133.1082 328° Northwest  Level FlightAware Approximate
Mon 08:24:00 PM 28.3241 133.0420 328° Northwest  Level FlightAware Approximate
Mon 08:25:00 PM 28.4179 132.9756 328° Northwest  Level FlightAware Approximate
Mon 08:26:00 PM 28.5116 132.9093 328° Northwest  Level FlightAware Approximate
Mon 08:27:00 PM 28.6054 132.8428 328° Northwest  Level FlightAware Approximate
Mon 08:28:00 PM 28.6991 132.7763 328° Northwest  Level FlightAware Approximate
Mon 08:29:00 PM 28.7927 132.7096 328° Northwest  Level FlightAware Approximate
Mon 08:30:00 PM 28.8864 132.6428 328° Northwest  Level FlightAware Approximate
Mon 08:31:00 PM 28.9800 132.5758 328° Northwest  Level FlightAware Approximate
Mon 08:32:00 PM 29.0735 132.5088 328° Northwest  Level FlightAware Approximate
Mon 08:33:00 PM 29.1671 132.4416 328° Northwest  Level FlightAware Approximate
Mon 08:34:00 PM 29.2606 132.3743 328° Northwest  Level FlightAware Approximate
Mon 08:35:00 PM 29.3540 132.3069 328° Northwest  Level FlightAware Approximate
Mon 08:36:00 PM 29.4475 132.2393 328° Northwest  Level FlightAware Approximate
Mon 08:37:00 PM 29.5409 132.1717 328° Northwest  Level FlightAware Approximate
Mon 08:38:00 PM 29.6342 132.1037 327° Northwest  Level FlightAware Approximate
Mon 08:39:00 PM 29.7271 132.0351 327° Northwest  Level FlightAware Approximate
Mon 08:40:00 PM 29.8200 131.9663 327° Northwest  Level FlightAware Approximate
Mon 08:41:00 PM 29.9129 131.8974 327° Northwest  Level FlightAware Approximate
Mon 08:42:00 PM 30.0057 131.8284 327° Northwest  Level FlightAware Approximate
Mon 08:43:00 PM 30.0985 131.7592 327° Northwest  Level FlightAware Approximate
Mon 08:44:00 PM 30.1912 131.6899 327° Northwest  Level FlightAware Approximate
Mon 08:45:00 PM 30.2842 131.6210 327° Northwest  Level FlightAware Approximate
Mon 08:46:00 PM 30.3772 131.5521 327° Northwest  Level FlightAware Approximate
Mon 08:47:00 PM 30.4702 131.4830 327° Northwest  Level FlightAware Approximate
Mon 08:48:00 PM 30.5632 131.4138 327° Northwest  Level FlightAware Approximate
Mon 08:49:00 PM 30.6560 131.3444 327° Northwest  Level FlightAware Approximate
Mon 08:50:00 PM 30.7489 131.2750 327° Northwest  Level FlightAware Approximate
Mon 08:51:00 PM 30.8417 131.2054 327° Northwest  Level FlightAware Approximate
Mon 08:52:00 PM 30.9337 131.1362 327° Northwest  Level FlightAware Approximate
Mon 08:53:00 PM 31.0257 131.0669 327° Northwest  Level FlightAware Approximate
Mon 08:54:00 PM 31.1176 130.9975 327° Northwest  Level FlightAware Approximate
Mon 08:55:00 PM 31.2095 130.9280 327° Northwest  Level FlightAware Approximate
Mon 08:56:00 PM 31.3013 130.8583 327° Northwest  Level FlightAware Approximate
Mon 08:57:00 PM 31.3931 130.7885 327° Northwest  Level FlightAware Approximate
Mon 08:57:17 PM 30.9040 130.8800 327° Northwest 401 461 38,000  Level FlightAware ADS-B
Mon 08:57:57 PM 30.9690 130.8560 342° North 401 461 38,000  Level FlightAware ADS-B
Mon 08:58:00 PM 31.4849 130.7185 327° Northwest  Level FlightAware Approximate
Mon 08:58:42 PM 31.0510 130.8250 342° North 399 459 38,000  Level FlightAware ADS-B
Mon 08:59:22 PM 31.1170 130.8010 343° North 399 459 38,000  Level FlightAware ADS-B
Mon 08:59:57 PM 31.1820 130.7760 342° North 398 458 38,000  Level FlightAware ADS-B
Mon 09:00:47 PM 31.2710 130.7430 342° North 398 458 38,000  Level FlightAware ADS-B
Mon 09:01:27 PM 31.3380 130.7180 342° North 398 458 38,000  Level FlightAware ADS-B
Mon 09:02:07 PM 31.4110 130.6910 342° North 398 458 38,000  Level FlightAware ADS-B
Mon 09:02:52 PM 31.4920 130.6610 342° North 398 458 38,000  Level FlightAware ADS-B
Mon 09:03:37 PM 31.5630 130.6340 342° North 399 459 38,000  Level FlightAware ADS-B
Mon 09:04:12 PM 31.6330 130.6070 342° North 399 459 38,000  Level FlightAware ADS-B
Mon 09:04:57 PM 31.7100 130.5790 343° North 399 459 38,000  Level FlightAware ADS-B
Mon 09:05:42 PM 31.7880 130.5480 341° North 399 459 38,000  Level FlightAware ADS-B
Mon 09:06:22 PM 31.8520 130.5230 342° North 399 459 38,000  Level FlightAware ADS-B
Mon 09:07:02 PM 31.9280 130.4930 341° North 399 459 38,000  Level FlightAware ADS-B
Mon 09:07:42 PM 31.9990 130.4660 342° North 399 459 38,000  Level FlightAware ADS-B
Mon 09:08:22 PM 32.0690 130.4390 342° North 400 460 38,000  Level FlightAware ADS-B
Mon 09:09:12 PM 32.1580 130.4030 341° North 400 460 38,000  Level FlightAware ADS-B
Mon 09:09:47 PM 32.2130 130.3820 342° North 400 460 38,000  Level FlightAware ADS-B
Mon 09:10:32 PM 32.2990 130.3490 342° North 402 463 38,000  Level FlightAware ADS-B
Mon 09:11:12 PM 32.3710 130.3210 342° North 402 463 38,000 -565 Level FlightAware ADS-B
Mon 09:11:57 PM 32.4510 130.2890 341° North 403 464 37,200 -988 Descending FlightAware ADS-B
Mon 09:12:37 PM 32.5220 130.2620 342° North 407 468 36,600 -988 Descending FlightAware ADS-B
Mon 09:13:22 PM 32.6050 130.2290 341° North 405 466 35,800 -1,694 Descending FlightAware ADS-B
Mon 09:14:02 PM 32.6790 130.2000 342° North 406 467 34,200 -3,035 Descending FlightAware ADS-B
Mon 09:14:47 PM 32.7610 130.1680 342° North 421 484 31,500 -3,318 Descending FlightAware ADS-B
Mon 09:15:27 PM 32.8320 130.1410 342° North 423 487 29,500 -2,925 Descending FlightAware ADS-B
Mon 09:16:07 PM 32.9060 130.1110 341° North 411 473 27,600 -2,824 Descending FlightAware ADS-B
Mon 09:16:52 PM 32.9870 130.0800 342° North 408 470 25,500 -2,824 Descending FlightAware ADS-B
Mon 09:17:32 PM 33.0620 130.0500 341° North 410 472 23,600 -2,824 Descending FlightAware ADS-B
Mon 09:18:17 PM 33.1450 130.0170 342° North 387 445 21,500 -2,753 Descending FlightAware ADS-B
Mon 09:18:57 PM 33.2140 129.9900 342° North 387 445 19,700 -2,682 Descending FlightAware ADS-B
Mon 09:19:42 PM 33.2910 129.9660 345° North 390 449 17,700 -2,612 Descending FlightAware ADS-B
Mon 09:20:22 PM 33.3620 129.9650 359° North 386 444 16,000 -1,642 Descending FlightAware ADS-B
Mon 09:21:17 PM 33.4540 129.9630 359° North 339 390 15,100 -1,074 Descending FlightAware ADS-B
Mon 09:21:57 PM 33.5130 129.9620 359° North 323 372 14,300 -1,482 Descending FlightAware ADS-B
Mon 09:22:42 PM 33.5790 129.9590 358° North 318 366 13,000 -1,694 Descending FlightAware ADS-B
Mon 09:23:22 PM 33.6370 129.9550 357° North 312 359 11,900 -1,553 Descending FlightAware ADS-B
Mon 09:24:07 PM 33.7000 129.9520 358° North 306 352 10,800 -1,629 Descending FlightAware ADS-B
Mon 09:24:32 PM 33.7390 129.9510 359° North 308 354 10,000 -1,500 Descending FlightAware ADS-B
Mon 09:24:47 PM 33.7600 129.9510 360° North 296 341 9,800 -933 Descending FlightAware ADS-B
Mon 09:25:17 PM 33.8000 129.9500 359° North 289 333 9,300 -1,200 Descending FlightAware ADS-B
Mon 09:25:57 PM 33.8510 129.9670 15° North 298 343 8,400 -1,418 Descending FlightAware ADS-B
Mon 09:26:12 PM 33.8670 129.9850 43° Northeast 298 343 8,000 -1,400 Descending FlightAware ADS-B
Mon 09:26:27 PM 33.8750 130.0040 63° Northeast 292 336 7,700 -1,350 Descending FlightAware ADS-B
Mon 09:26:52 PM 33.8870 130.0450 71° East 292 336 7,100 -1,200 Descending FlightAware ADS-B
Mon 09:27:27 PM 33.8990 130.1010 76° East 279 321 6,500 -943 Descending FlightAware ADS-B
Mon 09:28:02 PM 33.9000 130.1540 89° East 262 302 6,000 -800 Descending FlightAware ADS-B
Mon 09:28:12 PM 33.9000 130.1690 90° East 259 298 5,900 -1,067 Descending FlightAware ADS-B
Mon 09:28:47 PM 33.8880 130.2130 108° East 243 280 5,200 -1,200 Descending FlightAware ADS-B
Mon 09:29:12 PM 33.8750 130.2440 117° Southeast 236 272 4,700 -1,200 Descending FlightAware ADS-B
Mon 09:29:27 PM 33.8630 130.2580 136° Southeast 224 258 4,400 -800 Descending FlightAware ADS-B
Mon 09:29:57 PM 33.8400 130.2770 146° Southeast 193 222 4,100 -764 Descending FlightAware ADS-B
Mon 09:30:22 PM 33.8230 130.2890 150° Southeast 187 215 3,700 -800 Descending FlightAware ADS-B
Mon 09:30:57 PM 33.8120 130.2960 152° Southeast 194 223 3,300 -800 Descending FlightAware ADS-B
Mon 09:31:22 PM 33.7920 130.3100 150° Southeast 186 214 2,900 -800 Descending FlightAware ADS-B
Mon 09:31:42 PM 33.7750 130.3210 152° Southeast 173 199 2,700 -600 Descending FlightAware ADS-B
Mon 09:32:32 PM 33.7450 130.3420 150° Southeast 175 201 2,200 -467 Descending FlightAware ADS-B
Mon 09:33:12 PM 33.7130 130.3640 150° Southeast 167 192 2,000 -218 Descending FlightAware ADS-B
Mon 09:33:27 PM 33.7040 130.3700 151° Southeast 164 189 2,000  Level FlightAware ADS-B
Mon 09:34:02 PM 33.6830 130.3850 149° Southeast 165 190 2,000 -343 Level FlightAware ADS-B
Mon 09:34:37 PM 33.6600 130.4000 152° Southeast 145 167 1,600 -800 Descending FlightAware ADS-B
Mon 09:35:02 PM 33.6450 130.4110 149° Southeast 141 162 1,200 -840 Descending FlightAware ADS-B
Mon 09:35:27 PM 33.6300 130.4210 151° Southeast 130 150 900 -600 Descending FlightAware ADS-B
Mon 09:35:52 PM 33.6220 130.4260 153° Southeast 124 143 700 -480 Descending FlightAware ADS-B

Login

Don't have an account? Register now (free) for customized features, flight alerts, and more!